Terminal Aerodrome Forecast
Issued by NWS Corpus Christi, TX

Home | Current Version | Previous Version | Text Only | Print | Product List | Glossary On
Versions: 1 2 3 4 5 6 7 8 9 10 11 12 13 14 15 16 17 18 19 20 21 22 23
000
FTUS44 KCRP 051048 AAB
TAFCRP
TAF AMD
KCRP 051048Z 0511/0606 32011KT P6SM -RA SCT007 BKN015 OVC060
      TEMPO 0511/0515 BKN007 OVC015
     FM051600 31014KT P6SM SCT015 OVC060
     FM052000 30013KT P6SM FEW035 SCT060
     FM060200 26007KT P6SM FEW060=

USA.gov is the U.S. government's official web portal to all federal, state and local government web resources and services.